createdAt,value
2018-08-28T00:00:51.921Z,2.42
2018-08-28T00:05:57.146Z,2.12
2018-08-28T00:11:01.754Z,2.55
2018-08-28T00:16:07.403Z,2.50
2018-08-28T00:21:12.045Z,2.95
2018-08-28T00:26:17.157Z,4.83
2018-08-28T00:31:23.422Z,3.40
2018-08-28T00:36:28.109Z,4.22
2018-08-28T00:41:32.843Z,1.82
2018-08-28T00:46:37.798Z,2.72
2018-08-28T00:51:42.413Z,2.87
2018-08-28T00:56:47.032Z,2.12
2018-08-28T01:01:53.609Z,3.33
2018-08-28T01:06:58.731Z,3.47
2018-08-28T01:12:03.346Z,3.05
2018-08-28T01:17:08.060Z,3.10
2018-08-28T01:22:13.176Z,4.58
2018-08-28T01:27:17.804Z,2.65
2018-08-28T01:32:24.236Z,3.50
2018-08-28T01:37:28.907Z,2.83
2018-08-28T01:42:35.427Z,3.60
2018-08-28T01:47:40.672Z,3.70
2018-08-28T01:52:45.781Z,2.52
2018-08-28T01:57:50.435Z,3.45
2018-08-28T02:02:55.079Z,4.42
2018-08-28T02:07:59.712Z,4.97
2018-08-28T02:13:04.530Z,3.60
2018-08-28T02:18:09.102Z,3.42
2018-08-28T02:23:14.324Z,2.95
2018-08-28T02:28:19.302Z,2.95
2018-08-28T02:33:24.525Z,4.10
2018-08-28T02:38:29.083Z,4.50
2018-08-28T02:43:34.328Z,3.35
2018-08-28T02:48:39.514Z,4.25
2018-08-28T02:53:45.292Z,4.10
2018-08-28T02:58:49.990Z,2.85
2018-08-28T03:03:57.692Z,4.55
2018-08-28T03:09:03.036Z,3.42
2018-08-28T03:14:07.643Z,4.65
2018-08-28T03:19:12.324Z,4.10
2018-08-28T03:24:17.444Z,3.42
2018-08-28T03:29:22.491Z,3.42
2018-08-28T03:34:27.041Z,3.15
2018-08-28T03:39:31.691Z,4.42
2018-08-28T03:44:37.049Z,3.87
2018-08-28T03:49:41.729Z,4.87
2018-08-28T03:54:47.171Z,3.40
2018-08-28T03:59:53.449Z,3.75
2018-08-28T04:04:58.507Z,3.72
2018-08-28T04:10:03.698Z,3.37
2018-08-28T04:15:08.485Z,2.60
2018-08-28T04:20:13.830Z,4.60
2018-08-28T04:25:19.174Z,3.50
2018-08-28T04:30:24.583Z,4.08
2018-08-28T04:35:29.008Z,5.10
2018-08-28T04:40:33.612Z,3.60
2018-08-28T04:45:38.203Z,4.00
2018-08-28T04:50:42.829Z,3.47
2018-08-28T04:55:47.521Z,3.27
2018-08-28T05:00:52.472Z,4.83
2018-08-28T05:05:57.381Z,3.33
2018-08-28T05:11:02.118Z,4.25
2018-08-28T05:16:07.057Z,2.67
2018-08-28T05:21:12.613Z,3.50
2018-08-28T05:26:17.453Z,2.45
2018-08-28T05:31:22.211Z,4.03
2018-08-28T05:36:27.003Z,3.35
2018-08-28T05:41:32.637Z,2.65
2018-08-28T05:46:37.220Z,2.45
2018-08-28T05:51:42.070Z,3.08
2018-08-28T05:56:46.903Z,3.42
2018-08-28T06:01:52.636Z,5.20
2018-08-28T06:06:57.580Z,2.45
2018-08-28T06:12:02.751Z,2.42
2018-08-28T06:17:08.917Z,2.75
2018-08-28T06:22:13.593Z,2.00
2018-08-28T06:27:18.779Z,3.15
2018-08-28T06:32:24.508Z,3.10
2018-08-28T06:37:29.421Z,3.30
2018-08-28T06:42:34.009Z,2.15
2018-08-28T06:47:38.644Z,2.55
2018-08-28T06:52:45.240Z,4.58
2018-08-28T06:57:55.183Z,2.05
2018-08-28T07:02:59.933Z,3.17
2018-08-28T07:08:05.755Z,4.80
2018-08-28T07:13:10.670Z,3.17
2018-08-28T07:18:15.273Z,2.72
2018-08-28T07:23:19.889Z,3.42
2018-08-28T07:28:24.800Z,2.62
2018-08-28T07:33:29.939Z,2.55
2018-08-28T07:38:34.485Z,2.35
2018-08-28T07:43:39.705Z,4.37
2018-08-28T07:48:45.230Z,2.50
2018-08-28T07:53:49.925Z,2.75
2018-08-28T07:59:03.029Z,3.62
2018-08-28T08:04:07.717Z,2.95
2018-08-28T08:09:13.039Z,3.58
2018-08-28T08:14:18.814Z,4.20
2018-08-28T08:19:23.453Z,3.30
2018-08-28T08:24:28.105Z,4.17
2018-08-28T08:29:32.744Z,3.70
2018-08-28T08:34:37.243Z,5.75
2018-08-28T08:39:41.887Z,3.20
2018-08-28T08:44:47.025Z,4.62
2018-08-28T08:49:51.763Z,4.70
2018-08-28T08:54:56.455Z,3.75
2018-08-28T09:00:02.048Z,4.22
2018-08-28T09:05:07.012Z,5.75
2018-08-28T09:10:11.897Z,3.45
2018-08-28T09:15:16.624Z,2.70
2018-08-28T09:20:22.027Z,3.22
2018-08-28T09:25:26.809Z,4.62
2018-08-28T09:30:32.555Z,3.40
2018-08-28T09:35:37.252Z,3.77
2018-08-28T09:40:42.740Z,3.33
2018-08-28T09:45:47.502Z,3.08
2018-08-28T09:50:52.596Z,3.15
2018-08-28T09:55:57.620Z,2.65
2018-08-28T10:01:08.170Z,2.77
2018-08-28T10:06:13.859Z,3.95
2018-08-28T10:11:19.617Z,3.33
2018-08-28T10:16:24.167Z,2.85
2018-08-28T10:21:30.288Z,3.65
2018-08-28T10:26:35.195Z,2.87
2018-08-28T10:31:40.406Z,2.98
2018-08-28T10:36:45.270Z,4.55
2018-08-28T10:41:50.134Z,3.37
2018-08-28T10:46:55.191Z,3.65
2018-08-28T10:51:59.847Z,18.62
2018-08-28T10:57:04.750Z,4.55
2018-08-28T11:02:09.478Z,3.20
2018-08-28T11:07:16.072Z,3.45
2018-08-28T11:12:21.104Z,4.92
2018-08-28T11:17:26.215Z,3.37
2018-08-28T11:22:31.117Z,4.62
2018-08-28T11:27:36.494Z,2.60
2018-08-28T11:32:41.504Z,4.42
2018-08-28T11:37:46.518Z,3.50
2018-08-28T11:42:51.431Z,2.98
2018-08-28T11:47:56.607Z,3.55
2018-08-28T11:53:01.437Z,3.42
2018-08-28T11:58:07.496Z,3.12
2018-08-28T12:03:12.464Z,3.22
2018-08-28T12:08:17.274Z,4.00
2018-08-28T12:13:22.657Z,4.00
2018-08-28T12:18:27.484Z,2.40
2018-08-28T12:23:32.183Z,3.45
2018-08-28T12:28:37.036Z,3.83
2018-08-28T12:33:42.122Z,2.50
2018-08-28T12:38:47.230Z,3.35
2018-08-28T12:43:52.243Z,2.75
2018-08-28T12:48:56.898Z,3.62
2018-08-28T12:54:02.762Z,2.77
2018-08-28T12:59:07.499Z,3.15
2018-08-28T13:04:12.346Z,4.65
2018-08-28T13:09:17.017Z,3.27
2018-08-28T13:14:21.820Z,4.53
2018-08-28T13:19:26.689Z,4.08
2018-08-28T13:24:31.347Z,3.62
2018-08-28T13:29:36.428Z,3.20
2018-08-28T13:34:40.966Z,3.92
2018-08-28T13:39:45.760Z,4.03
2018-08-28T13:44:51.086Z,2.75
2018-08-28T13:49:55.641Z,2.92
2018-08-28T13:55:00.847Z,7.65
2018-08-28T14:00:05.812Z,2.15
2018-08-28T14:05:10.610Z,2.20
2018-08-28T14:10:15.375Z,2.83
2018-08-28T14:15:20.035Z,2.87
2018-08-28T14:20:24.924Z,2.05
2018-08-28T14:25:29.856Z,4.55
2018-08-28T14:30:34.654Z,2.67
2018-08-28T14:35:40.134Z,3.08
2018-08-28T14:40:44.682Z,2.80
2018-08-28T14:45:49.422Z,2.37
2018-08-28T14:50:55.315Z,3.02
2018-08-28T14:55:59.987Z,2.15
2018-08-28T15:01:04.717Z,1.47
2018-08-28T15:06:09.459Z,1.87
2018-08-28T15:11:14.421Z,2.83
2018-08-28T15:16:19.758Z,1.52
2018-08-28T15:21:24.404Z,1.10
2018-08-28T15:26:29.271Z,2.52
2018-08-28T15:31:34.019Z,4.08
2018-08-28T15:36:38.701Z,3.27
2018-08-28T15:41:43.448Z,4.90
2018-08-28T15:46:48.701Z,6.15
2018-08-28T15:51:53.575Z,4.67
2018-08-28T15:56:58.411Z,6.60
2018-08-28T16:07:52.465Z,5.95
2018-08-28T16:12:57.296Z,5.17
2018-08-28T16:18:02.245Z,6.90
2018-08-28T16:23:09.498Z,6.25
2018-08-28T16:28:14.551Z,6.58
2018-08-28T16:33:19.423Z,7.00
2018-08-28T16:38:24.126Z,8.15
2018-08-28T16:43:30.368Z,8.33
2018-08-28T16:48:36.171Z,9.38
2018-08-28T16:53:41.139Z,6.55
2018-08-28T16:58:46.344Z,6.08
2018-08-28T17:03:51.098Z,7.50
2018-08-28T17:08:55.809Z,4.85
2018-08-28T17:14:00.668Z,6.00
2018-08-28T17:19:07.063Z,5.80
2018-08-28T17:24:11.763Z,5.47
2018-08-28T17:29:16.610Z,6.15
2018-08-28T17:34:21.556Z,8.30
2018-08-28T17:39:26.633Z,6.65
2018-08-28T17:44:31.731Z,9.30
2018-08-28T17:49:36.354Z,9.58
2018-08-28T17:54:41.101Z,9.28
2018-08-28T17:59:46.913Z,7.40
2018-08-28T18:04:51.724Z,7.85
2018-08-28T18:09:56.559Z,7.08
2018-08-28T18:15:01.316Z,7.60
2018-08-28T18:20:06.398Z,6.25
2018-08-28T18:25:11.665Z,7.92
2018-08-28T18:30:16.525Z,8.28
2018-08-28T18:35:21.250Z,8.75
2018-08-28T18:40:25.971Z,7.05
2018-08-28T18:45:31.444Z,9.15
2018-08-28T18:50:36.078Z,7.45
2018-08-28T18:55:41.321Z,8.73
2018-08-28T19:00:46.182Z,7.53
2018-08-28T19:05:51.036Z,8.53
2018-08-28T19:10:55.870Z,12.28
2018-08-28T19:16:01.401Z,11.85
2018-08-28T19:21:06.136Z,8.70
2018-08-28T19:26:10.954Z,10.15
2018-08-28T19:31:15.649Z,11.00
2018-08-28T19:36:20.748Z,12.33
2018-08-28T19:41:25.694Z,11.20
2018-08-28T19:46:31.081Z,10.70
2018-08-28T19:51:36.816Z,12.50
2018-08-28T19:56:41.508Z,13.30
2018-08-28T20:01:46.846Z,13.45
2018-08-28T20:06:51.617Z,10.88
2018-08-28T20:11:56.248Z,12.20
2018-08-28T20:17:01.206Z,12.70
2018-08-28T20:22:08.382Z,11.35
2018-08-28T20:27:13.020Z,10.38
2018-08-28T20:32:18.586Z,10.32
2018-08-28T20:37:23.396Z,9.80
2018-08-28T20:42:28.053Z,12.23
2018-08-28T20:47:32.824Z,12.82
2018-08-28T20:52:37.778Z,9.60
2018-08-28T20:57:42.477Z,12.95
2018-08-28T21:02:47.329Z,9.95
2018-08-28T21:07:53.061Z,10.32
2018-08-28T21:12:58.042Z,9.73
2018-08-28T21:18:03.381Z,11.73
2018-08-28T21:23:08.370Z,10.48
2018-08-28T21:28:13.236Z,11.43
2018-08-28T21:33:18.656Z,10.18
2018-08-28T21:38:23.573Z,10.90
2018-08-28T21:43:28.460Z,9.10
2018-08-28T21:48:33.154Z,9.13
2018-08-28T21:53:38.116Z,9.73
2018-08-28T21:58:44.441Z,9.78
2018-08-28T22:03:49.366Z,9.68
2018-08-28T22:08:54.813Z,10.08
2018-08-28T22:14:00.365Z,8.70
2018-08-28T22:19:05.414Z,10.40
2018-08-28T22:24:10.228Z,8.85
2018-08-28T22:29:15.488Z,9.63
2018-08-28T22:34:21.273Z,11.60
2018-08-28T22:39:26.084Z,12.58
2018-08-28T22:44:31.717Z,11.05
2018-08-28T22:49:36.366Z,10.60
2018-08-28T22:54:41.828Z,8.40
2018-08-28T22:59:46.759Z,10.28
2018-08-28T23:04:51.499Z,8.93
2018-08-28T23:09:56.864Z,9.05
2018-08-28T23:15:02.506Z,10.85
2018-08-28T23:20:07.853Z,10.65
2018-08-28T23:25:12.734Z,10.53
2018-08-28T23:30:20.575Z,9.13
2018-08-28T23:35:26.167Z,7.60
2018-08-28T23:40:31.399Z,8.25
2018-08-28T23:45:36.487Z,8.20
2018-08-28T23:50:41.389Z,9.28
2018-08-28T23:55:46.554Z,9.00
